Main page


Airports :

Aviano, Italy

Aviano Air Base

latitude: 46-02N, longitude: 012-36E, elevation: 128 m

Current weather observation

The report was made 14 hours and 43 minutes ago, at 20:55 UTC
Wind 10 kt from the Northeast
Temperature 7°C
Humidity 93%
Pressure 997 hPa
Visibility: 7000 m
Scattered clouds at a height of 2000 ft
Broken clouds at a height of 3000 ft
light rain

METAR: LIPA 172055Z 04010KT 7000 -RA SCT020 BKN030 07/06 Q0997 RMK OVC VIS MIN 7000 WIND THR05 /////KT WIND THR23 /////KT A2945 WHT

Time: 12:38 (11:38 UTC)


The report was made 15 hours and 38 minutes ago, at 20:00 UTC
Forecast valid from 17 at 21 UTC to 18 at 06 UTC
Wind 8 kt from the North/Northeast
Visibility: 5000 m
Scattered clouds at a height of 2000 ft
Broken clouds at a height of 4000 ft
rain, mist
from 17 at 22 UTC to 18 at 06 UTC
Visibility: 2000 m
Broken clouds at a height of 1500 ft
rain, mist

TAF: LIPA 172000Z 1721/1806 03008KT 5000 RA BR SCT020 BKN040 TEMPO 1722/1806 2000 RA BR BKN015

Weather observations and forecasts of more than 4000 airports (METAR and TAF reports).

The available stations are represented by yellow and red dots on the map.

Hover mouse over dot to see the name of the station.

Then click to see weather observations and forecasts.

To change the map : click on the green buttons with a black cross to zoom in, on the green button with a dash to zoom out, or on the green arrows for adjacent maps.